Time;durP1;ratioP1;P1;durP2;ratioP2;P2;SDS_P1;SDS_P2;PMS_P1;PMS_P2;Temp;Humidity;BMP_temperature;BMP_pressure;BME280_temperature;BME280_humidity;BME280_pressure;Samples;Min_cycle;Max_cycle;Signal;HPM_P1;HPM_P2
2021/09/13 04:00:34;;;;;;;49.80;9.50;;;15.10;99.70;;;;;;5050224;28;20189;-67
2021/09/13 04:03:03;;;;;;;44.60;8.93;;;15.00;99.70;;;;;;5049989;28;20255;-68
2021/09/13 04:05:30;;;;;;;48.67;8.80;;;15.00;99.70;;;;;;5050493;28;20443;-67
2021/09/13 04:08:10;;;;;;;47.03;9.40;;;15.00;99.70;;;;;;5049037;28;20475;-68
2021/09/13 04:10:41;;;;;;;45.37;9.00;;;15.00;99.70;;;;;;5050100;28;20468;-68
2021/09/13 04:13:07;;;;;;;45.27;9.20;;;15.00;99.70;;;;;;5049887;28;20860;-68
2021/09/13 04:15:38;;;;;;;49.37;10.60;;;15.00;99.70;;;;;;5059411;28;20512;-67
2021/09/13 04:18:05;;;;;;;47.10;9.70;;;15.10;99.70;;;;;;5068833;28;20977;-71
2021/09/13 04:20:32;;;;;;;47.03;9.70;;;14.90;99.70;;;;;;5068275;28;21028;-68
2021/09/13 04:22:59;;;;;;;46.33;9.20;;;14.70;99.70;;;;;;5057569;28;20448;-69
2021/09/13 04:25:26;;;;;;;47.70;9.17;;;14.70;99.70;;;;;;5062327;28;20442;-67
2021/09/13 04:27:55;;;;;;;50.70;9.90;;;14.60;99.70;;;;;;5060547;28;20651;-69
2021/09/13 04:30:23;;;;;;;49.50;10.10;;;14.70;99.70;;;;;;5058774;28;20558;-68
2021/09/13 04:32:51;;;;;;;46.90;9.80;;;14.70;99.70;;;;;;5059372;28;20502;-68
2021/09/13 04:35:18;;;;;;;47.43;10.30;;;14.80;99.70;;;;;;5067004;28;20454;-68
2021/09/13 04:37:44;;;;;;;46.10;9.90;;;14.70;99.70;;;;;;5063551;28;20459;-68
2021/09/13 04:40:13;;;;;;;47.63;9.80;;;14.70;99.70;;;;;;5067862;28;20481;-68
2021/09/13 04:42:40;;;;;;;47.97;9.77;;;14.70;99.70;;;;;;5067682;28;20445;-68
2021/09/13 04:45:08;;;;;;;47.53;10.33;;;14.70;99.70;;;;;;5058476;28;20451;-68
2021/09/13 04:47:34;;;;;;;48.23;10.00;;;14.80;99.70;;;;;;5049286;28;20483;-68
2021/09/13 04:50:03;;;;;;;46.60;9.23;;;14.90;99.70;;;;;;5065628;28;20875;-68
2021/09/13 04:52:30;;;;;;;48.40;9.50;;;14.80;99.70;;;;;;5069105;28;20955;-69
2021/09/13 04:54:56;;;;;;;47.90;8.97;;;14.70;99.70;;;;;;5069192;28;20451;-68
2021/09/13 04:57:23;;;;;;;45.87;8.77;;;14.50;99.70;;;;;;5069500;28;20439;-68
2021/09/13 04:59:50;;;;;;;44.80;8.97;;;14.80;99.70;;;;;;5068794;28;20449;-68
2021/09/13 05:02:17;;;;;;;49.00;9.00;;;14.80;99.70;;;;;;5068789;28;20454;-68
2021/09/13 05:04:43;;;;;;;45.43;8.70;;;15.00;99.70;;;;;;5068889;28;20446;-68
2021/09/13 05:07:11;;;;;;;46.50;9.67;;;14.70;99.70;;;;;;5069286;28;20485;-69
2021/09/13 05:09:38;;;;;;;47.90;9.23;;;14.50;99.70;;;;;;5069076;28;20482;-70
2021/09/13 05:12:06;;;;;;;45.60;9.40;;;14.40;99.70;;;;;;5069023;28;21017;-69
2021/09/13 05:14:32;;;;;;;49.20;8.80;;;14.40;99.70;;;;;;5068473;28;20822;-69
2021/09/13 05:16:59;;;;;;;45.80;9.10;;;14.40;99.70;;;;;;5068710;28;20445;-68
2021/09/13 05:19:26;;;;;;;48.97;10.00;;;14.50;99.70;;;;;;5070263;28;20829;-68
2021/09/13 05:21:53;;;;;;;45.17;8.73;;;14.40;99.70;;;;;;5072069;28;20466;-68
2021/09/13 05:24:21;;;;;;;44.93;9.30;;;15.00;99.70;;;;;;5060444;28;20522;-68
2021/09/13 05:26:48;;;;;;;47.47;9.50;;;15.20;99.70;;;;;;5053185;28;20852;-68
2021/09/13 05:29:15;;;;;;;47.00;9.40;;;15.10;99.70;;;;;;5052382;28;20447;-69
2021/09/13 05:31:41;;;;;;;51.10;10.77;;;14.90;99.70;;;;;;5055292;28;20463;-68
2021/09/13 05:34:08;;;;;;;48.27;9.60;;;14.70;99.70;;;;;;5073033;28;20448;-68
2021/09/13 05:36:35;;;;;;;46.80;9.17;;;14.60;99.70;;;;;;5072902;28;20953;-68
2021/09/13 05:39:02;;;;;;;45.20;9.10;;;14.60;99.70;;;;;;5072389;28;20455;-68
2021/09/13 05:41:30;;;;;;;44.67;9.03;;;15.20;99.70;;;;;;5072395;28;20486;-68
2021/09/13 05:43:56;;;;;;;46.60;9.37;;;15.10;99.70;;;;;;5073053;28;20925;-68
2021/09/13 05:46:23;;;;;;;52.87;9.47;;;15.00;99.70;;;;;;5066375;22;20492;-68
2021/09/13 05:48:50;;;;;;;48.43;9.17;;;14.90;99.70;;;;;;5053122;28;20864;-68
2021/09/13 05:51:16;;;;;;;46.90;9.30;;;14.80;99.70;;;;;;5052499;28;20427;-68
2021/09/13 05:53:43;;;;;;;49.27;9.67;;;15.00;99.70;;;;;;5052277;28;20456;-68
2021/09/13 05:56:10;;;;;;;47.37;9.13;;;15.10;99.70;;;;;;5052652;28;21036;-68
2021/09/13 05:58:38;;;;;;;46.50;9.10;;;15.00;99.70;;;;;;5051969;28;20440;-68
2021/09/13 06:01:05;;;;;;;47.00;9.10;;;14.90;99.70;;;;;;5052590;28;20447;-68
2021/09/13 06:03:32;;;;;;;46.50;8.83;;;14.90;99.70;;;;;;5052437;28;20455;-68
2021/09/13 06:05:58;;;;;;;47.90;9.27;;;15.00;99.70;;;;;;5052541;28;20497;-68
2021/09/13 06:08:25;;;;;;;43.90;7.83;;;15.30;99.70;;;;;;5052061;28;20479;-67
2021/09/13 06:10:52;;;;;;;47.10;7.93;;;15.20;99.70;;;;;;5052410;28;20447;-68
2021/09/13 06:13:19;;;;;;;44.17;8.93;;;15.10;99.70;;;;;;5052274;28;20551;-68
2021/09/13 06:15:47;;;;;;;45.43;9.33;;;15.20;99.70;;;;;;5052353;28;20464;-68
2021/09/13 06:18:14;;;;;;;47.53;9.20;;;15.20;99.70;;;;;;5052446;28;20440;-68
2021/09/13 06:20:41;;;;;;;46.87;9.20;;;15.20;99.70;;;;;;5052002;28;20493;-68
2021/09/13 06:23:08;;;;;;;44.27;8.63;;;15.20;99.70;;;;;;5052280;28;20450;-68
2021/09/13 06:25:35;;;;;;;46.43;9.40;;;15.20;99.70;;;;;;5052245;28;20467;-68
2021/09/13 06:28:01;;;;;;;43.73;7.90;;;15.20;99.70;;;;;;5051440;28;20591;-67
2021/09/13 06:30:28;;;;;;;44.57;8.43;;;15.50;99.70;;;;;;5051103;28;20440;-68
2021/09/13 06:32:56;;;;;;;46.10;9.30;;;15.70;99.70;;;;;;5052163;28;20443;-68
2021/09/13 06:35:23;;;;;;;46.47;8.83;;;15.70;99.70;;;;;;5051550;28;20864;-67
2021/09/13 06:37:49;;;;;;;45.67;8.80;;;15.60;99.70;;;;;;5052099;28;20439;-68
2021/09/13 06:40:16;;;;;;;44.43;8.30;;;15.50;99.70;;;;;;5051115;28;20497;-68
2021/09/13 06:42:43;;;;;;;48.10;8.60;;;15.40;99.70;;;;;;5052018;28;20467;-69
2021/09/13 06:45:12;;;;;;;45.17;7.87;;;15.40;99.70;;;;;;5051474;28;20478;-67
2021/09/13 06:47:46;;;;;;;48.93;8.33;;;15.50;99.70;;;;;;5051932;28;20498;-68
2021/09/13 06:50:18;;;;;;;44.60;8.10;;;15.60;99.70;;;;;;5051412;28;20444;-68
2021/09/13 06:52:45;;;;;;;46.23;8.30;;;15.90;99.70;;;;;;5051874;28;20447;-69
2021/09/13 06:55:12;;;;;;;43.80;8.20;;;16.30;99.70;;;;;;5051254;28;20466;-68
2021/09/13 06:57:39;;;;;;;44.10;7.60;;;16.70;99.70;;;;;;5051057;28;20608;-68
2021/09/13 07:00:10;;;;;;;44.90;7.30;;;17.00;99.70;;;;;;5051130;28;20439;-68
2021/09/13 07:02:41;;;;;;;45.63;7.70;;;17.20;99.70;;;;;;5051460;28;20918;-68
2021/09/13 07:05:09;;;;;;;45.00;6.90;;;17.70;99.70;;;;;;5051083;28;20447;-68
2021/09/13 07:07:37;;;;;;;49.30;7.47;;;18.00;99.70;;;;;;5051359;28;20853;-68
2021/09/13 07:10:07;;;;;;;46.13;7.30;;;18.30;99.70;;;;;;5050640;28;20871;-68
2021/09/13 07:12:34;;;;;;;41.67;7.27;;;18.80;99.70;;;;;;5051248;28;20451;-67
2021/09/13 07:15:00;;;;;;;43.90;7.50;;;19.30;99.70;;;;;;5050913;28;20448;-68
2021/09/13 07:17:27;;;;;;;42.93;7.73;;;19.40;99.70;;;;;;5050828;28;20432;-68
2021/09/13 07:19:54;;;;;;;41.30;8.10;;;19.00;99.70;;;;;;5050855;28;20939;-68
2021/09/13 07:22:21;;;;;;;40.73;7.63;;;19.00;99.70;;;;;;5050486;28;20448;-68
2021/09/13 07:24:49;;;;;;;49.67;9.50;;;19.20;99.70;;;;;;5051020;28;20448;-68
2021/09/13 07:27:15;;;;;;;43.13;7.70;;;19.20;99.70;;;;;;5050479;28;20471;-68
2021/09/13 07:29:42;;;;;;;43.80;8.30;;;19.40;99.70;;;;;;5050570;28;20443;-68
2021/09/13 07:32:09;;;;;;;41.83;10.10;;;19.30;99.70;;;;;;5050439;28;20448;-68
2021/09/13 07:34:36;;;;;;;42.00;9.80;;;19.40;99.70;;;;;;5050799;28;20454;-67
2021/09/13 07:37:03;;;;;;;41.57;9.53;;;19.50;99.70;;;;;;5050400;28;21066;-68
2021/09/13 07:39:31;;;;;;;43.40;7.93;;;19.50;99.70;;;;;;5049902;28;20450;-68
2021/09/13 07:42:00;;;;;;;41.60;8.30;;;19.70;99.70;;;;;;5049092;28;20454;-68
2021/09/13 07:44:27;;;;;;;39.30;7.53;;;19.80;99.70;;;;;;5050568;28;21111;-67
2021/09/13 07:46:53;;;;;;;38.07;7.30;;;19.80;99.70;;;;;;5049933;28;21016;-68
2021/09/13 07:49:20;;;;;;;41.20;7.93;;;19.70;99.70;;;;;;5049899;28;20479;-68
2021/09/13 07:51:48;;;;;;;49.80;9.00;;;19.60;99.70;;;;;;5049869;28;20447;-69
2021/09/13 07:54:15;;;;;;;43.30;8.30;;;19.30;99.70;;;;;;5050395;28;20439;-67
2021/09/13 07:56:41;;;;;;;42.27;8.10;;;19.20;99.70;;;;;;5050298;28;20468;-68
2021/09/13 07:59:09;;;;;;;45.17;9.83;;;19.10;99.70;;;;;;5048993;28;20444;-68
2021/09/13 08:01:36;;;;;;;41.80;9.90;;;18.80;99.70;;;;;;5050010;28;20459;-68
2021/09/13 08:04:03;;;;;;;45.20;10.43;;;18.80;99.70;;;;;;5049694;28;20439;-68
2021/09/13 08:06:30;;;;;;;44.63;9.43;;;18.80;99.70;;;;;;5050364;28;20475;-68
2021/09/13 08:08:56;;;;;;;43.40;9.53;;;18.80;99.70;;;;;;5049629;28;20860;-67
2021/09/13 08:11:23;;;;;;;43.23;9.33;;;18.90;99.70;;;;;;5050280;28;21006;-67
2021/09/13 08:13:50;;;;;;;43.80;10.80;;;18.80;99.70;;;;;;5049630;28;20450;-68
2021/09/13 08:16:18;;;;;;;43.87;10.60;;;18.80;99.70;;;;;;5050044;28;20471;-67
2021/09/13 08:18:45;;;;;;;43.60;10.50;;;18.80;99.70;;;;;;5049937;28;20444;-68
2021/09/13 08:21:11;;;;;;;45.50;10.17;;;18.70;99.70;;;;;;5050319;28;20448;-68
2021/09/13 08:23:38;;;;;;;43.90;10.50;;;18.70;99.70;;;;;;5050092;28;20443;-68
2021/09/13 08:26:07;;;;;;;45.07;10.40;;;18.70;99.70;;;;;;5050040;28;20468;-68
2021/09/13 08:28:34;;;;;;;44.37;9.57;;;18.80;99.70;;;;;;5049641;28;20529;-68
2021/09/13 08:31:01;;;;;;;43.13;8.90;;;18.90;99.70;;;;;;5048903;28;20549;-68
2021/09/13 08:33:29;;;;;;;41.97;7.27;;;18.90;99.70;;;;;;5049624;28;20451;-68
2021/09/13 08:35:56;;;;;;;43.83;8.77;;;18.90;99.70;;;;;;5049482;28;20463;-68
2021/09/13 08:38:23;;;;;;;43.30;8.90;;;18.90;99.70;;;;;;5049083;28;20822;-68
2021/09/13 08:40:52;;;;;;;48.50;8.60;;;19.00;99.70;;;;;;5049284;28;20478;-67
2021/09/13 08:43:19;;;;;;;41.37;7.00;;;19.00;99.70;;;;;;5046862;28;20463;-68
2021/09/13 08:45:49;;;;;;;41.60;6.70;;;19.00;99.70;;;;;;5039261;28;20491;-68
2021/09/13 08:48:19;;;;;;;39.37;6.37;;;19.30;99.70;;;;;;5029913;28;20480;-68
2021/09/13 08:51:06;;;;;;;42.10;6.23;;;19.80;99.70;;;;;;5029665;28;20456;-68
2021/09/13 08:53:36;;;;;;;42.33;7.90;;;20.10;99.70;;;;;;5029500;28;20547;-68
2021/09/13 08:56:04;;;;;;;40.07;6.80;;;20.10;99.70;;;;;;5047030;28;20522;-67
2021/09/13 08:58:34;;;;;;;39.80;6.73;;;20.10;99.70;;;;;;5048732;28;20812;-68
2021/09/13 09:01:01;;;;;;;41.10;5.97;;;20.10;99.70;;;;;;5049216;28;20447;-68
2021/09/13 09:03:29;;;;;;;41.77;6.17;;;20.20;99.70;;;;;;5049614;28;20439;-68
2021/09/13 09:05:57;;;;;;;39.10;6.27;;;20.20;99.70;;;;;;5049198;28;20464;-67
2021/09/13 09:08:26;;;;;;;40.50;5.93;;;20.20;99.70;;;;;;5049429;28;20496;-68
2021/09/13 09:10:54;;;;;;;39.60;6.57;;;20.10;99.70;;;;;;5049575;28;20709;-68
2021/09/13 09:13:21;;;;;;;38.83;5.60;;;20.00;99.70;;;;;;5049297;28;20983;-68
2021/09/13 09:15:55;;;;;;;38.90;5.87;;;20.00;99.70;;;;;;5049380;28;20475;-68
2021/09/13 09:18:23;;;;;;;38.20;5.90;;;20.10;99.70;;;;;;5048840;28;20446;-66
2021/09/13 09:20:49;;;;;;;38.47;5.83;;;20.10;99.70;;;;;;5049446;28;20633;-68
2021/09/13 09:23:18;;;;;;;38.03;5.40;;;20.50;99.70;;;;;;5047547;28;20560;-68
2021/09/13 09:25:47;;;;;;;37.83;5.10;;;20.90;99.70;;;;;;5049373;28;20460;-68
2021/09/13 09:28:16;;;;;;;37.97;4.70;;;21.50;99.70;;;;;;5047541;28;21013;-68
2021/09/13 09:30:44;;;;;;;36.87;4.57;;;22.20;99.70;;;;;;5049337;28;20453;-68
2021/09/13 09:33:12;;;;;;;35.87;4.70;;;22.80;99.70;;;;;;5049108;28;20505;-68
2021/09/13 09:35:44;;;;;;;37.47;4.80;;;23.60;99.70;;;;;;5049851;28;20463;-68
2021/09/13 09:38:28;;;;;;;40.50;5.70;;;23.90;99.70;;;;;;5048476;28;20197;-68
2021/09/13 09:41:03;;;;;;;35.10;5.10;;;24.20;99.70;;;;;;5049220;28;20205;-68
2021/09/13 09:43:31;;;;;;;35.50;4.83;;;25.00;99.00;;;;;;5044860;28;20201;-69
2021/09/13 09:45:58;;;;;;;36.50;5.55;;;25.50;98.20;;;;;;5029253;28;20233;-69
2021/09/13 09:48:32;;;;;;;35.08;5.00;;;25.80;95.60;;;;;;5028943;28;20232;-68
2021/09/13 09:50:59;;;;;;;36.45;4.72;;;25.90;97.00;;;;;;5029017;28;20279;-68
2021/09/13 09:53:29;;;;;;;31.70;5.07;;;26.50;97.90;;;;;;5029478;28;20291;-68
2021/09/13 09:56:10;;;;;;;35.38;5.18;;;26.60;95.50;;;;;;5028974;28;20532;-68
2021/09/13 09:59:02;;;;;;;32.77;5.03;;;26.10;95.70;;;;;;5028288;28;20197;-68
2021/09/13 10:01:34;;;;;;;33.37;5.30;;;25.50;96.50;;;;;;5029118;28;20585;-68
2021/09/13 10:04:18;;;;;;;34.40;5.20;;;25.10;99.70;;;;;;5029224;28;20208;-68
2021/09/13 10:06:47;;;;;;;35.67;6.00;;;24.80;99.20;;;;;;5031882;28;20726;-68
2021/09/13 10:09:15;;;;;;;36.73;6.10;;;24.10;99.70;;;;;;5032256;28;20506;-67
2021/09/13 10:11:43;;;;;;;37.00;6.47;;;23.60;99.70;;;;;;5032312;28;20444;-68
2021/09/13 10:14:12;;;;;;;43.90;6.70;;;23.30;99.70;;;;;;5032325;28;20455;-68
2021/09/13 10:16:41;;;;;;;38.43;6.20;;;23.00;99.70;;;;;;5032163;28;20999;-67
2021/09/13 10:19:08;;;;;;;37.57;6.50;;;23.00;99.70;;;;;;5032076;28;20475;-68
2021/09/13 10:21:36;;;;;;;37.57;6.53;;;23.00;99.70;;;;;;5046331;28;20466;-68
2021/09/13 10:24:06;;;;;;;37.47;6.70;;;23.00;99.70;;;;;;5050717;28;20459;-68
2021/09/13 10:26:35;;;;;;;37.20;6.03;;;22.90;99.70;;;;;;5040582;28;20467;-68
2021/09/13 10:29:18;;;;;;;38.50;6.50;;;22.70;99.70;;;;;;5051640;28;20478;-68
2021/09/13 10:31:57;;;;;;;37.57;6.00;;;22.50;99.70;;;;;;5049838;28;20467;-68
2021/09/13 10:34:25;;;;;;;38.27;6.30;;;22.50;99.70;;;;;;5051935;28;20878;-68
2021/09/13 10:37:06;;;;;;;40.10;6.40;;;22.50;99.70;;;;;;5051803;28;20486;-68
2021/09/13 10:39:57;;;;;;;37.90;6.20;;;22.60;99.70;;;;;;5051551;28;20440;-68
2021/09/13 10:42:46;;;;;;;39.43;6.73;;;22.60;99.70;;;;;;5051781;28;20448;-68
2021/09/13 10:45:19;;;;;;;39.60;7.00;;;22.60;99.70;;;;;;5051458;28;20953;-68
2021/09/13 10:47:47;;;;;;;39.73;6.73;;;22.60;99.70;;;;;;5051915;28;20440;-67
2021/09/13 10:50:26;;;;;;;41.93;7.60;;;22.60;99.70;;;;;;5051368;28;20506;-68
2021/09/13 10:52:54;;;;;;;42.20;7.07;;;22.50;99.70;;;;;;5051140;28;20455;-68
2021/09/13 10:55:29;;;;;;;38.70;6.40;;;22.30;99.70;;;;;;5050717;28;20456;-68
2021/09/13 10:58:04;;;;;;;37.73;6.37;;;22.30;99.70;;;;;;5048319;28;20435;-68
2021/09/13 11:00:58;;;;;;;40.53;7.03;;;22.30;99.70;;;;;;5050696;28;20493;-67
2021/09/13 11:03:39;;;;;;;38.27;6.20;;;22.30;99.70;;;;;;5043205;28;20448;-68
2021/09/13 11:06:45;;;;;;;39.20;6.80;;;22.50;99.70;;;;;;5059696;28;20900;-67
2021/09/13 11:09:18;;;;;;;38.50;6.30;;;22.60;99.70;;;;;;5045963;28;20483;-68
2021/09/13 11:11:49;;;;;;;37.20;6.00;;;22.40;99.70;;;;;;5031127;28;20467;-68
2021/09/13 11:14:19;;;;;;;38.70;6.90;;;22.50;99.70;;;;;;5031352;28;20448;-68
2021/09/13 11:16:48;;;;;;;38.43;6.40;;;22.60;99.70;;;;;;5030882;28;20575;-68
2021/09/13 11:19:17;;;;;;;38.30;6.90;;;22.50;99.70;;;;;;5049296;28;20939;-68
2021/09/13 11:21:46;;;;;;;39.07;6.73;;;22.50;99.70;;;;;;5050796;28;20464;-68
2021/09/13 11:24:16;;;;;;;38.80;6.90;;;22.50;99.70;;;;;;5051240;28;20443;-68
2021/09/13 11:26:47;;;;;;;39.30;6.20;;;22.60;99.70;;;;;;5051001;28;20468;-68
2021/09/13 11:29:15;;;;;;;39.07;6.93;;;22.80;99.70;;;;;;5050799;28;20490;-68
2021/09/13 11:31:45;;;;;;;38.70;6.70;;;22.90;99.70;;;;;;5050632;28;20456;-68
2021/09/13 11:34:30;;;;;;;39.43;6.80;;;22.90;99.70;;;;;;5051105;28;20976;-68
2021/09/13 11:37:03;;;;;;;38.40;6.60;;;22.90;99.70;;;;;;5050697;28;20468;-68
2021/09/13 11:39:32;;;;;;;37.97;6.53;;;22.90;99.70;;;;;;5050623;28;20448;-69
2021/09/13 11:42:01;;;;;;;38.67;7.00;;;22.80;99.70;;;;;;5050591;28;20950;-69
2021/09/13 11:44:29;;;;;;;37.70;6.23;;;22.80;99.70;;;;;;5050368;28;20781;-68
2021/09/13 11:46:59;;;;;;;37.63;6.37;;;22.90;99.70;;;;;;5077974;22;20484;-66
2021/09/13 11:49:28;;;;;;;37.40;6.40;;;22.90;99.70;;;;;;5052126;28;20482;-66
2021/09/13 11:51:59;;;;;;;38.80;6.90;;;22.70;99.70;;;;;;5053193;28;20451;-65
2021/09/13 11:54:26;;;;;;;47.57;9.23;;;22.30;99.70;;;;;;5052713;28;20459;-66
2021/09/13 11:56:53;;;;;;;113.27;107.83;;;22.20;99.70;;;;;;5053313;28;20525;-65
2021/09/13 11:59:21;;;;;;;110.23;104.93;;;22.20;99.70;;;;;;5062750;28;20431;-67
2021/09/13 12:01:57;;;;;;;99.30;94.50;;;22.10;99.70;;;;;;5073627;28;20819;-66
2021/09/13 12:04:25;;;;;;;85.03;70.13;;;22.00;99.70;;;;;;5073279;28;20986;-67
2021/09/13 12:07:05;;;;;;;84.50;80.40;;;22.00;99.70;;;;;;5073366;28;20820;-65
2021/09/13 12:09:34;;;;;;;118.83;113.13;;;22.00;99.70;;;;;;5073216;28;20478;-66
2021/09/13 12:12:01;;;;;;;80.70;76.27;;;22.10;99.70;;;;;;5073369;28;20447;-65
2021/09/13 12:14:28;;;;;;;94.33;89.80;;;22.30;99.70;;;;;;5073344;28;20446;-66
2021/09/13 12:17:10;;;;;;;101.33;96.43;;;22.60;99.70;;;;;;5072164;28;20467;-68
2021/09/13 12:19:38;;;;;;;97.87;93.13;;;22.90;99.70;;;;;;5060608;28;20446;-65
2021/09/13 12:22:06;;;;;;;104.67;99.67;;;23.00;99.70;;;;;;5053273;28;20448;-66
2021/09/13 12:24:33;;;;;;;94.30;89.77;;;23.10;99.70;;;;;;5053699;28;20448;-66
2021/09/13 12:27:13;;;;;;;82.40;78.40;;;23.10;99.70;;;;;;5052330;28;20475;-66
2021/09/13 12:30:01;;;;;;;83.90;79.87;;;22.90;99.70;;;;;;5052769;28;20483;-66
2021/09/13 12:32:31;;;;;;;81.93;78.00;;;22.80;99.70;;;;;;5036339;28;20460;-66
2021/09/13 12:35:02;;;;;;;73.53;70.00;;;22.80;99.70;;;;;;5053071;28;20427;-67
2021/09/13 12:37:32;;;;;;;91.37;86.97;;;22.80;99.70;;;;;;5074204;28;20526;-66
2021/09/13 12:40:12;;;;;;;78.37;73.40;;;22.90;99.70;;;;;;5056756;28;20447;-66
2021/09/13 12:42:54;;;;;;;86.50;82.30;;;23.00;99.70;;;;;;5050120;28;20456;-66
2021/09/13 12:45:22;;;;;;;97.13;92.47;;;23.10;99.70;;;;;;5044346;28;20451;-68
2021/09/13 12:47:52;;;;;;;80.87;76.93;;;23.40;99.70;;;;;;5053946;28;20502;-67
2021/09/13 12:50:34;;;;;;;88.63;84.37;;;23.40;99.70;;;;;;5049385;28;20494;-66
2021/09/13 12:53:04;;;;;;;86.47;82.30;;;23.30;99.70;;;;;;5054258;28;20815;-67
2021/09/13 12:55:37;;;;;;;69.13;65.63;;;23.30;99.70;;;;;;5054241;28;20451;-66
2021/09/13 12:58:23;;;;;;;83.70;79.67;;;23.10;99.70;;;;;;5052239;28;20471;-67
2021/09/13 13:00:49;;;;;;;88.47;84.20;;;22.90;99.70;;;;;;5040854;28;20451;-67
2021/09/13 13:03:17;;;;;;;90.77;86.40;;;22.90;99.70;;;;;;5034875;28;20444;-67
2021/09/13 13:05:49;;;;;;;90.60;86.20;;;22.90;99.70;;;;;;5034863;28;20445;-68
2021/09/13 13:08:16;;;;;;;82.00;78.07;;;23.10;99.70;;;;;;5035463;28;20963;-67
2021/09/13 13:10:44;;;;;;;93.57;89.07;;;23.20;99.70;;;;;;5046231;28;20479;-66
2021/09/13 13:13:10;;;;;;;85.23;81.13;;;23.00;99.70;;;;;;5051199;28;20479;-65
2021/09/13 13:15:38;;;;;;;108.10;102.90;;;23.20;99.70;;;;;;5049839;28;20452;-67
2021/09/13 13:18:10;;;;;;;99.67;94.87;;;23.40;99.70;;;;;;5051306;28;20468;-66
2021/09/13 13:20:39;;;;;;;99.50;94.70;;;23.50;99.70;;;;;;5050206;28;20448;-66
2021/09/13 13:23:06;;;;;;;96.57;91.93;;;23.50;99.70;;;;;;5051542;28;20440;-65
2021/09/13 13:25:32;;;;;;;91.60;87.20;;;23.30;99.70;;;;;;5050276;28;20452;-68
2021/09/13 13:27:59;;;;;;;75.27;71.63;;;23.20;99.70;;;;;;5038736;28;20464;-66
2021/09/13 13:30:26;;;;;;;99.47;94.67;;;23.30;99.70;;;;;;5030772;28;20480;-66
2021/09/13 13:32:52;;;;;;;94.67;90.07;;;23.30;99.70;;;;;;5030335;28;20904;-66
2021/09/13 13:35:19;;;;;;;102.03;97.13;;;23.40;99.70;;;;;;5031057;28;20448;-67
2021/09/13 13:37:47;;;;;;;87.33;83.13;;;23.50;99.70;;;;;;5030325;28;20479;-67
2021/09/13 13:40:14;;;;;;;79.17;75.37;;;23.30;99.70;;;;;;5040650;28;20843;-66
2021/09/13 13:42:41;;;;;;;107.50;102.33;;;23.20;99.70;;;;;;5054579;28;20443;-68
2021/09/13 13:45:08;;;;;;;98.90;94.13;;;23.20;99.70;;;;;;5054987;28;20451;-67
2021/09/13 13:47:36;;;;;;;82.67;78.67;;;23.50;99.70;;;;;;5053101;28;20568;-67
2021/09/13 13:50:02;;;;;;;98.87;94.13;;;23.70;99.70;;;;;;5047603;28;20538;-67
2021/09/13 13:52:29;;;;;;;90.63;86.27;;;23.70;99.70;;;;;;5033178;28;20452;-67
2021/09/13 13:54:57;;;;;;;87.97;83.77;;;23.60;99.70;;;;;;5048073;28;20454;-66
2021/09/13 13:57:24;;;;;;;92.10;87.67;;;23.40;99.70;;;;;;5053734;28;20478;-67
2021/09/13 13:59:51;;;;;;;80.80;76.90;;;23.30;99.70;;;;;;5051807;28;20881;-67
2021/09/13 14:02:17;;;;;;;86.60;82.40;;;23.30;99.70;;;;;;5052143;28;20478;-68
2021/09/13 14:04:44;;;;;;;81.17;77.27;;;23.20;99.70;;;;;;5051609;28;20559;-67
2021/09/13 14:07:12;;;;;;;72.97;69.43;;;23.20;99.70;;;;;;5051461;28;20461;-67
2021/09/13 14:09:39;;;;;;;68.73;61.63;;;23.20;99.70;;;;;;5052914;28;20574;-69
2021/09/13 14:12:08;;;;;;;65.13;55.20;;;23.10;99.70;;;;;;5038276;28;20959;-67
2021/09/13 14:14:35;;;;;;;81.13;77.23;;;22.90;99.70;;;;;;5033137;28;20923;-67
2021/09/13 14:17:01;;;;;;;71.97;68.37;;;22.90;99.70;;;;;;5048955;28;20471;-67
2021/09/13 14:19:28;;;;;;;76.37;72.67;;;23.30;99.70;;;;;;5051226;28;20443;-67
2021/09/13 14:21:55;;;;;;;73.37;68.37;;;23.30;99.70;;;;;;5044546;28;20463;-67
2021/09/13 14:24:21;;;;;;;84.97;80.90;;;23.50;99.70;;;;;;5050980;28;20448;-67
2021/09/13 14:26:48;;;;;;;74.37;70.77;;;23.50;99.70;;;;;;5051103;28;20490;-67
2021/09/13 14:29:17;;;;;;;68.33;59.60;;;23.40;99.70;;;;;;5055800;28;20781;-67
2021/09/13 14:31:43;;;;;;;83.50;79.50;;;23.30;99.70;;;;;;5053824;28;20480;-66
2021/09/13 14:34:10;;;;;;;70.67;66.47;;;23.30;99.70;;;;;;5053301;28;20842;-68
2021/09/13 14:36:37;;;;;;;84.20;80.13;;;23.30;99.70;;;;;;5053471;28;20443;-67
2021/09/13 14:39:04;;;;;;;80.97;77.07;;;23.30;99.70;;;;;;5050059;28;20798;-66
2021/09/13 14:41:31;;;;;;;76.77;73.07;;;23.30;99.70;;;;;;5050608;28;20813;-67
2021/09/13 14:43:57;;;;;;;70.33;66.93;;;23.50;99.70;;;;;;5054002;28;20447;-68
2021/09/13 14:46:25;;;;;;;73.83;65.33;;;23.50;99.70;;;;;;5052184;28;20452;-67
2021/09/13 14:48:52;;;;;;;72.17;65.27;;;23.40;99.70;;;;;;5052596;28;20617;-67
2021/09/13 14:51:19;;;;;;;73.63;69.23;;;23.20;99.70;;;;;;5051223;28;20856;-67
2021/09/13 14:53:46;;;;;;;65.87;61.50;;;23.10;99.70;;;;;;5053453;28;20514;-67
2021/09/13 14:56:13;;;;;;;77.00;70.30;;;23.20;99.70;;;;;;5052465;28;20459;-68
2021/09/13 14:58:40;;;;;;;71.10;63.67;;;23.20;99.70;;;;;;5050437;28;20463;-67
2021/09/13 15:01:07;;;;;;;72.30;68.80;;;23.20;99.70;;;;;;5060531;28;20474;-68
2021/09/13 15:03:35;;;;;;;69.77;66.07;;;23.10;99.70;;;;;;5050313;28;20443;-66
2021/09/13 15:06:01;;;;;;;71.67;67.80;;;23.00;99.70;;;;;;5050955;28;20855;-67
2021/09/13 15:08:28;;;;;;;73.23;69.70;;;23.00;99.70;;;;;;5050990;28;20474;-67
2021/09/13 15:10:55;;;;;;;67.63;60.83;;;22.90;99.70;;;;;;5051312;28;20505;-67
2021/09/13 15:13:22;;;;;;;67.33;61.03;;;23.00;99.70;;;;;;5051943;28;20447;-67
2021/09/13 15:15:48;;;;;;;65.13;56.57;;;23.10;99.70;;;;;;5053743;28;21040;-67
2021/09/13 15:18:15;;;;;;;68.23;60.63;;;23.10;99.70;;;;;;5053906;28;20472;-68
2021/09/13 15:20:46;;;;;;;69.63;65.83;;;23.10;99.70;;;;;;5052938;28;20817;-68
2021/09/13 15:23:14;;;;;;;79.77;75.90;;;23.30;99.70;;;;;;5053627;28;20505;-67
2021/09/13 15:25:42;;;;;;;76.60;72.73;;;23.50;98.60;;;;;;5053873;28;20971;-68
2021/09/13 15:28:09;;;;;;;75.47;70.30;;;23.50;98.80;;;;;;5036882;28;20468;-67
2021/09/13 15:30:36;;;;;;;71.43;65.57;;;23.50;98.40;;;;;;5054086;28;20475;-66
2021/09/13 15:33:03;;;;;;;70.13;65.83;;;23.50;99.70;;;;;;5060153;28;20444;-67
2021/09/13 15:35:29;;;;;;;66.63;60.00;;;23.40;99.70;;;;;;5053333;28;20459;-67
2021/09/13 15:37:58;;;;;;;100.50;95.70;;;23.50;99.60;;;;;;5053520;28;20463;-67
2021/09/13 15:40:25;;;;;;;71.70;65.83;;;23.60;99.20;;;;;;5052487;28;20565;-68
2021/09/13 15:42:52;;;;;;;80.67;76.77;;;23.60;99.00;;;;;;5052762;28;20655;-66
2021/09/13 15:45:19;;;;;;;81.67;77.77;;;23.50;99.70;;;;;;5052257;28;20446;-67
2021/09/13 15:47:46;;;;;;;86.00;81.87;;;23.50;98.70;;;;;;5039111;28;20470;-69
2021/09/13 15:50:13;;;;;;;70.43;63.70;;;23.60;98.70;;;;;;5052187;28;20475;-67
2021/09/13 15:52:40;;;;;;;73.83;70.07;;;23.60;97.80;;;;;;5059150;28;20452;-67
2021/09/13 15:55:10;;;;;;;70.77;67.40;;;23.40;99.70;;;;;;5057749;28;20446;-67
2021/09/13 15:57:37;;;;;;;77.37;73.63;;;23.40;99.70;;;;;;5072973;28;20473;-66
2021/09/13 16:00:07;;;;;;;72.47;65.53;;;23.40;99.10;;;;;;5054858;28;20440;-68
2021/09/13 16:02:34;;;;;;;70.03;60.93;;;23.20;99.70;;;;;;5055172;28;20779;-65
2021/09/13 16:05:01;;;;;;;72.57;68.47;;;23.20;99.10;;;;;;5060323;28;20451;-66
2021/09/13 16:07:28;;;;;;;72.07;61.73;;;23.00;99.70;;;;;;5070442;28;20470;-66
2021/09/13 16:09:55;;;;;;;77.07;73.37;;;23.00;99.70;;;;;;5071601;28;20446;-66
2021/09/13 16:12:23;;;;;;;82.63;78.63;;;23.00;99.70;;;;;;5052783;28;20440;-66
2021/09/13 16:14:50;;;;;;;78.20;71.83;;;23.00;99.70;;;;;;5058164;28;20451;-64
2021/09/13 16:17:17;;;;;;;74.33;63.83;;;22.90;99.70;;;;;;5055210;28;20464;-67
2021/09/13 16:19:44;;;;;;;69.33;65.97;;;22.80;99.70;;;;;;5052203;28;20443;-67
2021/09/13 16:22:11;;;;;;;69.80;64.60;;;22.60;99.70;;;;;;5070786;28;20500;-66
2021/09/13 16:24:40;;;;;;;73.73;68.37;;;22.50;99.70;;;;;;5060592;28;20447;-65
2021/09/13 16:27:08;;;;;;;70.87;63.30;;;22.30;99.70;;;;;;5051162;28;20491;-68
2021/09/13 16:29:37;;;;;;;73.57;65.03;;;22.40;99.70;;;;;;5041216;28;20460;-65
2021/09/13 16:32:04;;;;;;;73.13;63.17;;;22.40;99.70;;;;;;5031485;28;20564;-65
2021/09/13 16:34:31;;;;;;;72.27;63.50;;;22.40;99.70;;;;;;5039598;28;20445;-68
2021/09/13 16:36:59;;;;;;;74.90;65.13;;;22.50;99.70;;;;;;5031104;28;21010;-65
2021/09/13 16:39:25;;;;;;;74.83;69.87;;;22.40;99.70;;;;;;5030498;28;20445;-67
2021/09/13 16:41:52;;;;;;;71.03;63.00;;;22.30;99.70;;;;;;5044770;28;20832;-65